Silverdale, Pennsylvania
Current Conditions -  °F | °C
As of 2:54 AM on Thursday 27 Nov 2014 (Local Time) from KDYL Reporting Station
Overcast Overcast  
Wind Chill: 26°   Ceiling: 7000
Heat Index: 33°   Visibility: 10mi
Dew Point: 30°   Wind: 8mph
Humidity: 89%   Direction: 290°WNW
Pressure: 29.92"   Gusts: NA
Location:  40.35°N, 75.27°W
Report Text: KDYL 270754Z AUTO 29007KT 10SM SCT050 OVC070 01/M01 A2992 RMK AO2 SLP139 T00061011
Loading
Personal Weather Stations






























Interactive Weather Map New forecast layout! Learn more

10-Day Weather Forecast

Advertisements
Track Severe Weather on mobile